Time;durP1;ratioP1;P1;durP2;ratioP2;P2;SDS_P1;SDS_P2;PMS_P1;PMS_P2;Temp;Humidity;BMP_temperature;BMP_pressure;BME280_temperature;BME280_humidity;BME280_pressure;Samples;Min_cycle;Max_cycle;Signal;HPM_P1;HPM_P2
2022/11/09 00:01:13;;;;;;;13.20;9.50;;;;;;;-143.84;82.98;45163.31;5012733;28;21221;-74
2022/11/09 00:03:42;;;;;;;31.77;10.70;;;;;;;-143.84;83.34;45146.19;5012695;28;20524;-74
2022/11/09 00:06:09;;;;;;;13.57;9.23;;;;;;;-143.84;83.62;45157.59;5012613;28;20443;-74
2022/11/09 00:08:37;;;;;;;15.27;8.67;;;;;;;-143.84;83.42;45174.75;5012656;28;20461;-74
2022/11/09 00:11:06;;;;;;;13.70;8.97;;;;;;;-143.84;83.74;45167.13;5012533;28;20507;-74
2022/11/09 00:13:37;;;;;;;9.93;8.67;;;;;;;-143.84;83.63;45180.47;5012573;28;20446;-74
2022/11/09 00:16:05;;;;;;;14.63;9.40;;;;;;;-143.84;83.63;45161.41;5012341;28;20524;-74
2022/11/09 00:18:34;;;;;;;9.73;8.37;;;;;;;-143.84;83.60;45174.75;5012207;28;20487;-74
2022/11/09 00:21:06;;;;;;;14.80;8.23;;;;;;;-143.84;83.38;45161.41;5012289;28;20450;-74
2022/11/09 00:23:33;;;;;;;15.00;7.73;;;;;;;-143.84;83.63;45148.09;5011990;28;20941;-73
2022/11/09 00:26:01;;;;;;;16.40;8.77;;;;;;;-143.84;83.65;45178.56;5012227;28;20497;-74
2022/11/09 00:28:28;;;;;;;13.27;8.27;;;;;;;-143.84;83.76;45174.75;5011410;28;20522;-74
2022/11/09 00:30:59;;;;;;;14.23;9.43;;;;;;;-143.84;83.63;45189.97;5012016;28;20452;-75
2022/11/09 00:33:26;;;;;;;17.10;8.83;;;;;;;-143.84;83.57;45188.06;5012296;28;20506;-74
2022/11/09 00:35:53;;;;;;;17.07;9.83;;;;;;;-143.84;83.37;45172.84;5012094;28;21432;-74
2022/11/09 00:38:22;;;;;;;12.13;8.80;;;;;;;-143.84;83.29;45163.31;5011850;28;20548;-74
2022/11/09 00:40:49;;;;;;;12.90;7.37;;;;;;;-143.84;83.24;45167.13;5011921;28;21135;-74
2022/11/09 00:43:17;;;;;;;15.53;8.37;;;;;;;-143.84;83.66;45188.06;5011699;28;20454;-74
2022/11/09 00:45:46;;;;;;;21.70;9.27;;;;;;;-143.84;83.77;45169.03;5011754;28;20436;-73
2022/11/09 00:48:13;;;;;;;16.67;7.83;;;;;;;-143.84;83.47;45178.56;5011126;28;20540;-74
2022/11/09 00:50:40;;;;;;;9.43;7.73;;;;;;;-143.84;83.33;45178.56;5010879;28;20435;-74
2022/11/09 00:53:08;;;;;;;11.90;8.27;;;;;;;-143.84;83.68;45163.31;5010801;28;20438;-73
2022/11/09 00:55:36;;;;;;;9.07;7.13;;;;;;;-143.84;83.71;45188.06;5011073;28;20438;-74
2022/11/09 00:58:03;;;;;;;9.90;7.73;;;;;;;-143.84;83.76;45161.41;5010625;28;20486;-74
2022/11/09 01:00:30;;;;;;;14.00;8.07;;;;;;;-143.84;83.64;45189.97;5010538;28;20451;-74
2022/11/09 01:02:58;;;;;;;9.93;7.40;;;;;;;-143.84;83.30;45178.56;5010549;28;20887;-73
2022/11/09 01:05:25;;;;;;;15.50;9.03;;;;;;;-143.84;83.32;45178.56;5014197;28;20901;-77
2022/11/09 01:07:52;;;;;;;16.90;8.40;;;;;;;-143.84;83.31;45189.97;5015029;28;20571;-77
2022/11/09 01:10:19;;;;;;;15.63;8.23;;;;;;;-143.84;83.25;45178.56;5015809;28;20487;-77
2022/11/09 01:12:48;;;;;;;13.93;7.67;;;;;;;-143.84;83.41;45191.88;5015564;28;20440;-77
2022/11/09 01:15:15;;;;;;;13.27;7.53;;;;;;;-143.84;83.01;45163.31;5015069;28;20447;-77
2022/11/09 01:17:42;;;;;;;13.93;7.63;;;;;;;-143.84;82.89;45188.06;5013874;28;20510;-77
2022/11/09 01:20:10;;;;;;;10.73;7.67;;;;;;;-143.84;82.89;45163.31;5012469;28;21217;-77
2022/11/09 01:22:37;;;;;;;15.73;8.20;;;;;;;-143.84;82.55;45170.94;5012630;28;20466;-77
2022/11/09 01:25:05;;;;;;;11.40;6.90;;;;;;;-143.84;82.84;45178.56;5014777;28;20509;-77
2022/11/09 01:27:33;;;;;;;19.50;8.20;;;;;;;-143.84;82.98;45170.94;4997403;28;20444;-77
2022/11/09 01:30:02;;;;;;;14.73;8.53;;;;;;;-143.84;82.91;45195.69;5015269;28;20514;-77
2022/11/09 01:32:32;;;;;;;11.00;7.97;;;;;;;-143.84;82.72;45186.16;5015033;28;20477;-77
2022/11/09 01:34:59;;;;;;;13.50;8.77;;;;;;;-143.84;83.04;45142.38;5015002;28;20436;-77
2022/11/09 01:37:26;;;;;;;13.47;8.20;;;;;;;-143.84;83.01;45174.75;5015043;28;20443;-77
2022/11/09 01:39:53;;;;;;;15.73;7.43;;;;;;;-143.84;82.84;45180.47;5014702;28;20435;-77
2022/11/09 01:42:24;;;;;;;16.30;7.60;;;;;;;-143.84;82.67;45193.78;5014511;28;20446;-77
2022/11/09 01:45:22;;;;;;;15.13;7.60;;;;;;;-143.84;82.65;45165.22;5014840;28;20447;-77
2022/11/09 01:47:54;;;;;;;11.63;7.53;;;;;;;-143.84;82.74;45197.59;5013395;28;20497;-77
2022/11/09 01:50:31;;;;;;;9.77;7.87;;;;;;;-143.84;82.68;45167.13;5013293;28;20436;-77
2022/11/09 01:53:02;;;;;;;9.13;7.23;;;;;;;-143.84;82.79;45170.94;5014357;28;20957;-77
2022/11/09 01:55:30;;;;;;;12.50;8.20;;;;;;;-143.84;82.73;45157.59;5014429;28;20446;-77
2022/11/09 01:58:02;;;;;;;16.23;7.20;;;;;;;-143.84;82.97;45140.47;4995785;28;20494;-77
2022/11/09 02:00:32;;;;;;;9.93;7.30;;;;;;;-143.84;82.78;45205.22;5012097;28;20501;-77
2022/11/09 02:03:04;;;;;;;13.77;8.20;;;;;;;-143.84;82.96;45178.56;5013687;28;20451;-77
2022/11/09 02:05:35;;;;;;;14.73;7.77;;;;;;;-143.84;82.55;45174.75;5014325;28;20516;-77
2022/11/09 02:08:05;;;;;;;11.97;6.90;;;;;;;-143.84;82.67;45178.56;5014088;28;20513;-77
2022/11/09 02:10:39;;;;;;;8.20;6.53;;;;;;;-143.84;82.89;45161.41;5014340;28;20523;-77
2022/11/09 02:13:08;;;;;;;10.07;7.37;;;;;;;-143.84;82.70;45144.28;5014067;28;20470;-77
2022/11/09 02:15:37;;;;;;;13.37;7.87;;;;;;;-143.84;82.33;45159.50;5013736;28;20933;-77
2022/11/09 02:18:05;;;;;;;11.83;6.93;;;;;;;-143.84;82.37;45180.47;5013726;28;20479;-77
2022/11/09 02:20:46;;;;;;;11.20;8.50;;;;;;;-143.84;82.30;45186.16;5014549;28;20450;-77
2022/11/09 02:23:14;;;;;;;7.40;6.20;;;;;;;-143.84;82.29;45155.69;5014221;28;20459;-77
2022/11/09 02:25:43;;;;;;;10.20;6.70;;;;;;;-143.84;82.29;45165.22;5013947;28;20447;-77
2022/11/09 02:28:10;;;;;;;18.47;7.20;;;;;;;-143.84;82.56;45163.31;5013985;28;20825;-77
2022/11/09 02:30:38;;;;;;;17.10;7.57;;;;;;;-143.84;82.25;45159.50;5014068;28;20517;-77
2022/11/09 02:33:06;;;;;;;9.00;7.23;;;;;;;-143.84;82.41;45169.03;5013504;28;20443;-77
2022/11/09 02:35:34;;;;;;;10.53;6.30;;;;;;;-143.84;82.36;45153.81;5014141;28;20447;-77
2022/11/09 02:38:01;;;;;;;20.93;8.10;;;;;;;-143.84;82.17;45159.50;5013841;28;20487;-77
2022/11/09 02:40:32;;;;;;;9.07;7.63;;;;;;;-143.84;81.90;45226.16;5013920;28;21235;-77
2022/11/09 02:43:01;;;;;;;10.53;7.20;;;;;;;-143.84;82.16;45159.50;5013407;28;20442;-77
2022/11/09 02:45:28;;;;;;;15.33;7.63;;;;;;;-143.84;82.13;45159.50;5013669;28;20438;-77
2022/11/09 02:47:55;;;;;;;9.53;7.00;;;;;;;-143.84;82.25;45186.16;5013174;28;20483;-77
2022/11/09 02:50:23;;;;;;;20.37;7.13;;;;;;;-143.84;82.18;45203.31;5013661;28;20449;-77
2022/11/09 02:52:51;;;;;;;15.57;7.67;;;;;;;-143.84;82.10;45189.97;5013458;28;20438;-77
2022/11/09 02:55:18;;;;;;;12.63;7.27;;;;;;;-143.84;81.90;45178.56;5014042;28;20971;-77
2022/11/09 02:57:46;;;;;;;6.87;6.17;;;;;;;-143.84;82.07;45174.75;5013930;28;20516;-77
2022/11/09 03:00:13;;;;;;;8.23;6.40;;;;;;;-143.84;81.88;45176.66;5013933;28;20505;-77
2022/11/09 03:02:41;;;;;;;7.90;6.40;;;;;;;-143.84;81.82;45146.19;5013852;28;20513;-77
2022/11/09 03:05:08;;;;;;;8.87;6.87;;;;;;;-143.84;81.75;45189.97;5013621;28;20435;-77
2022/11/09 03:07:36;;;;;;;8.83;6.60;;;;;;;-143.84;81.67;45186.16;5013742;28;20444;-77
2022/11/09 03:10:05;;;;;;;13.07;7.40;;;;;;;-143.84;81.67;45189.97;5012084;28;20531;-77
2022/11/09 03:12:32;;;;;;;10.50;6.53;;;;;;;-143.84;81.83;45188.06;5013381;28;20873;-77
2022/11/09 03:15:01;;;;;;;6.13;5.50;;;;;;;-143.84;81.70;45186.16;5013839;28;20444;-77
2022/11/09 03:17:29;;;;;;;10.60;6.13;;;;;;;-143.84;81.80;45167.13;5013891;28;20440;-77
2022/11/09 03:19:56;;;;;;;7.60;6.60;;;;;;;-143.84;81.81;45165.22;5014409;28;20483;-77
2022/11/09 03:22:23;;;;;;;8.70;6.20;;;;;;;-143.84;81.82;45197.59;5013311;28;20597;-77
2022/11/09 03:24:51;;;;;;;8.97;6.60;;;;;;;-143.84;81.50;45205.22;5013486;28;20448;-77
2022/11/09 03:27:19;;;;;;;7.83;6.70;;;;;;;-143.84;81.44;45167.13;5013683;28;20955;-77
2022/11/09 03:29:46;;;;;;;18.40;9.13;;;;;;;-143.84;80.99;45161.41;5013877;28;20451;-77
2022/11/09 03:32:13;;;;;;;18.07;8.80;;;;;;;-143.84;80.98;45165.22;5013222;28;20460;-77
2022/11/09 03:34:41;;;;;;;16.13;8.50;;;;;;;-143.84;80.76;45165.22;5013804;28;20440;-77
2022/11/09 03:37:08;;;;;;;13.80;8.00;;;;;;;-143.84;80.57;45153.81;5013613;28;20447;-77
2022/11/09 03:39:35;;;;;;;20.47;8.80;;;;;;;-143.84;80.58;45167.13;5013296;28;20474;-77
2022/11/09 03:42:02;;;;;;;8.47;7.70;;;;;;;-143.84;80.31;45172.84;5013527;28;20436;-77
2022/11/09 03:44:30;;;;;;;13.60;7.80;;;;;;;-143.84;80.32;45167.13;5012867;28;20462;-78
2022/11/09 03:46:58;;;;;;;14.80;7.60;;;;;;;-143.84;80.20;45170.94;5012878;28;20488;-77
2022/11/09 03:49:25;;;;;;;13.50;7.43;;;;;;;-143.84;79.91;45167.13;5013118;28;20517;-79
2022/11/09 03:51:52;;;;;;;14.10;7.40;;;;;;;-143.84;80.30;45186.16;5012665;28;20457;-79
2022/11/09 03:54:19;;;;;;;9.30;7.00;;;;;;;-143.84;80.56;45172.84;5012139;28;20920;-78
2022/11/09 03:56:46;;;;;;;10.73;6.73;;;;;;;-143.84;80.90;45155.69;5012540;28;20443;-79
2022/11/09 03:59:13;;;;;;;15.27;6.90;;;;;;;-143.84;80.77;45169.03;5012613;28;20550;-78
2022/11/09 04:01:42;;;;;;;9.57;7.73;;;;;;;-143.84;80.82;45170.94;5012752;28;20890;-78
2022/11/09 04:04:09;;;;;;;11.10;6.70;;;;;;;-143.84;80.56;45167.13;5012074;28;20516;-78
2022/11/09 04:06:36;;;;;;;11.90;7.17;;;;;;;-143.84;80.75;45161.41;5012972;28;21025;-78
2022/11/09 04:09:03;;;;;;;8.20;6.77;;;;;;;-143.84;80.62;45178.56;5012896;28;20435;-78
2022/11/09 04:11:30;;;;;;;9.03;6.90;;;;;;;-143.84;80.56;45161.41;5012667;28;21008;-78
2022/11/09 04:13:57;;;;;;;8.67;7.23;;;;;;;-143.84;80.93;45170.94;5013702;28;20508;-78
2022/11/09 04:16:25;;;;;;;9.60;7.00;;;;;;;-143.84;80.92;45184.25;5011273;28;20991;-78
2022/11/09 04:18:53;;;;;;;11.90;7.10;;;;;;;-143.84;80.84;45178.56;5015575;28;20556;-77
2022/11/09 04:21:20;;;;;;;9.33;6.00;;;;;;;-143.84;80.64;45167.13;5013671;28;20447;-77
2022/11/09 04:23:49;;;;;;;9.53;6.70;;;;;;;-143.84;80.66;45188.06;5016984;28;20439;-77
2022/11/09 04:26:16;;;;;;;7.20;6.10;;;;;;;-143.84;80.57;45151.91;5018147;28;20459;-77
2022/11/09 04:28:43;;;;;;;10.67;7.20;;;;;;;-143.84;81.04;45161.41;5018201;28;20450;-77
2022/11/09 04:31:11;;;;;;;10.20;7.03;;;;;;;-143.84;81.15;45193.78;5017659;28;20859;-77
2022/11/09 04:33:38;;;;;;;17.90;7.37;;;;;;;-143.84;81.30;45188.06;5018681;28;20439;-77
2022/11/09 04:36:07;;;;;;;9.70;7.27;;;;;;;-143.84;81.26;45169.03;5019235;28;20494;-77
2022/11/09 04:38:35;;;;;;;26.23;7.33;;;;;;;-143.84;81.39;45159.50;5018816;28;20505;-77
2022/11/09 04:41:04;;;;;;;14.77;6.97;;;;;;;-143.84;81.31;45172.84;5018150;28;20459;-78
2022/11/09 04:43:31;;;;;;;20.40;7.57;;;;;;;-143.84;81.39;45193.78;5018831;28;20442;-77
2022/11/09 04:46:00;;;;;;;24.77;6.73;;;;;;;-143.84;81.19;45201.41;5018064;28;20431;-77
2022/11/09 04:48:28;;;;;;;9.77;7.07;;;;;;;-143.84;81.33;45191.88;5017633;28;20570;-77
2022/11/09 04:51:00;;;;;;;12.70;7.63;;;;;;;-143.84;81.07;45155.69;5017748;28;20439;-77
2022/11/09 04:53:29;;;;;;;12.00;7.20;;;;;;;-143.84;80.99;45170.94;5015415;28;20447;-77
2022/11/09 04:55:56;;;;;;;11.57;7.57;;;;;;;-143.84;80.98;45165.22;5016810;28;21263;-77
2022/11/09 04:58:24;;;;;;;11.23;7.83;;;;;;;-143.84;80.98;45165.22;5016348;28;21239;-77
2022/11/09 05:00:52;;;;;;;14.10;8.40;;;;;;;-143.84;81.04;45172.84;5004961;28;20464;-77
2022/11/09 05:03:19;;;;;;;17.03;8.67;;;;;;;-143.84;80.74;45203.31;4995253;28;20448;-77
2022/11/09 05:05:47;;;;;;;12.50;7.43;;;;;;;-143.84;80.65;45169.03;4993425;28;20459;-78
2022/11/09 05:08:14;;;;;;;11.43;7.87;;;;;;;-143.84;80.70;45169.03;4994076;28;20443;-76
2022/11/09 05:10:42;;;;;;;16.83;7.73;;;;;;;-143.84;80.61;45172.84;4994118;28;20866;-75
2022/11/09 05:13:12;;;;;;;8.80;7.10;;;;;;;-143.84;80.82;45197.59;4993371;28;20428;-77
2022/11/09 05:15:39;;;;;;;12.10;7.70;;;;;;;-143.84;80.79;45169.03;4994139;28;20954;-77
2022/11/09 05:18:08;;;;;;;14.90;7.60;;;;;;;-143.84;80.63;45155.69;4993065;28;20457;-78
2022/11/09 05:20:36;;;;;;;17.30;7.50;;;;;;;-143.84;80.93;45197.59;4996706;28;20473;-76
2022/11/09 05:25:49;;;;;;;12.93;7.30;;;;;;;-143.84;81.01;45148.09;4992699;28;20428;-79
2022/11/09 05:28:16;;;;;;;16.33;8.10;;;;;;;-143.84;81.14;45174.75;4992681;28;20456;-75
2022/11/09 05:30:43;;;;;;;16.30;7.40;;;;;;;-143.84;80.95;45167.13;4992017;28;20461;-74
2022/11/09 05:33:11;;;;;;;14.93;8.10;;;;;;;-143.84;81.01;45178.56;4990811;28;20458;-72
2022/11/09 05:35:38;;;;;;;10.47;7.27;;;;;;;-143.84;81.11;45159.50;4990285;28;20440;-75
2022/11/09 05:38:05;;;;;;;34.67;9.93;;;;;;;-143.84;81.07;45155.69;4990769;28;20443;-75
2022/11/09 05:40:32;;;;;;;22.23;11.20;;;;;;;-143.84;81.21;45172.84;4991481;28;20487;-75
2022/11/09 05:43:01;;;;;;;11.30;8.50;;;;;;;-143.84;81.26;45161.41;4991520;28;20452;-73
2022/11/09 05:45:28;;;;;;;11.00;8.70;;;;;;;-143.84;81.18;45178.56;4990984;28;20517;-73
2022/11/09 05:47:55;;;;;;;20.83;8.70;;;;;;;-143.84;81.12;45174.75;4990873;28;20484;-73
2022/11/09 05:50:22;;;;;;;18.33;9.70;;;;;;;-143.84;81.13;45161.41;4990945;28;20447;-73
2022/11/09 05:52:49;;;;;;;18.13;10.13;;;;;;;-143.84;81.46;45163.31;4990233;28;20476;-73
2022/11/09 05:55:17;;;;;;;16.30;9.83;;;;;;;-143.84;81.44;45188.06;4990777;28;20509;-73
2022/11/09 05:57:44;;;;;;;20.53;10.90;;;;;;;-143.84;81.56;45132.84;4990892;28;20437;-73
2022/11/09 06:00:14;;;;;;;14.37;9.77;;;;;;;-143.84;81.66;45176.66;4990662;28;20480;-73
2022/11/09 06:02:41;;;;;;;19.40;10.43;;;;;;;-143.84;81.77;45195.69;4990804;28;20456;-72
2022/11/09 06:05:09;;;;;;;12.90;10.30;;;;;;;-143.84;82.03;45184.25;4990584;28;20448;-73
2022/11/09 06:07:37;;;;;;;17.87;9.93;;;;;;;-143.84;82.24;45170.94;4990525;28;20452;-73
2022/11/09 06:10:05;;;;;;;21.30;10.83;;;;;;;-143.84;82.18;45161.41;4990646;28;20436;-73
2022/11/09 06:12:32;;;;;;;16.67;10.40;;;;;;;-143.84;82.38;45186.16;4990328;28;20451;-73
2022/11/09 06:14:59;;;;;;;25.90;11.43;;;;;;;-143.84;82.26;45151.91;4990481;28;20507;-73
2022/11/09 06:17:27;;;;;;;13.27;10.80;;;;;;;-143.84;82.44;45169.03;4990295;28;20436;-73
2022/11/09 06:19:55;;;;;;;15.07;10.40;;;;;;;-143.84;82.08;45176.66;4990442;28;20538;-73
2022/11/09 06:22:22;;;;;;;13.50;10.57;;;;;;;-143.84;82.25;45157.59;4990629;28;20445;-73
2022/11/09 06:24:49;;;;;;;22.97;11.93;;;;;;;-143.84;82.05;45165.22;4990234;28;20459;-73
2022/11/09 06:27:16;;;;;;;25.83;11.67;;;;;;;-143.84;82.04;45178.56;4990585;28;20547;-73
2022/11/09 06:29:43;;;;;;;26.10;12.60;;;;;;;-143.84;82.21;45165.22;4990257;28;20452;-73
2022/11/09 06:32:11;;;;;;;17.77;12.47;;;;;;;-143.84;82.29;45150.00;4989251;28;20502;-73
2022/11/09 06:34:39;;;;;;;20.03;11.77;;;;;;;-143.84;82.05;45188.06;4989882;28;20516;-73
2022/11/09 06:37:06;;;;;;;25.20;12.60;;;;;;;-143.84;82.08;45174.75;4989799;28;20453;-73
2022/11/09 06:39:33;;;;;;;19.80;12.10;;;;;;;-143.84;82.11;45142.38;4989670;28;20540;-73
2022/11/09 06:42:01;;;;;;;15.07;11.03;;;;;;;-143.84;81.99;45157.59;4989778;28;20446;-72
2022/11/09 06:44:28;;;;;;;21.00;12.00;;;;;;;-143.84;81.86;45151.91;4989917;28;20878;-73
2022/11/09 06:46:55;;;;;;;19.03;12.30;;;;;;;-143.84;81.75;45159.50;4989446;28;20446;-73
2022/11/09 06:49:22;;;;;;;21.17;12.10;;;;;;;-143.84;81.96;45148.09;4990208;28;21052;-73
2022/11/09 06:51:51;;;;;;;28.63;11.60;;;;;;;-143.84;81.99;45163.31;4989990;28;20445;-72
2022/11/09 06:54:18;;;;;;;19.50;11.30;;;;;;;-143.84;81.79;45159.50;4989740;28;20452;-73
2022/11/09 06:56:45;;;;;;;17.97;12.30;;;;;;;-143.84;81.73;45170.94;4989654;28;20813;-73
2022/11/09 06:59:12;;;;;;;27.33;11.90;;;;;;;-143.84;81.80;45163.31;4989677;28;20512;-73
2022/11/09 07:01:40;;;;;;;22.80;11.60;;;;;;;-143.84;81.47;45169.03;4990023;28;20461;-73
2022/11/09 07:04:07;;;;;;;19.30;12.37;;;;;;;-143.84;81.47;45163.31;4989750;28;21232;-73
2022/11/09 07:06:34;;;;;;;15.30;11.60;;;;;;;-143.84;81.47;45155.69;4989822;28;20484;-73
2022/11/09 07:09:03;;;;;;;16.90;11.07;;;;;;;-143.84;81.34;45151.91;4989672;28;20452;-73
2022/11/09 07:11:30;;;;;;;19.40;11.67;;;;;;;-143.84;81.35;45178.56;4989426;28;20514;-73
2022/11/09 07:13:57;;;;;;;16.63;12.10;;;;;;;-143.84;81.46;45159.50;4988846;28;20445;-73
2022/11/09 07:16:24;;;;;;;19.97;12.50;;;;;;;-143.84;81.33;45153.81;4989283;28;20999;-73
2022/11/09 07:18:52;;;;;;;21.10;12.20;;;;;;;-143.84;81.27;45155.69;4989528;28;21012;-73
2022/11/09 07:21:19;;;;;;;33.10;12.27;;;;;;;-143.84;81.15;45174.75;4989659;28;20485;-73
2022/11/09 07:23:48;;;;;;;17.63;11.60;;;;;;;-143.84;81.30;45176.66;4989645;28;20449;-69
2022/11/09 07:26:17;;;;;;;16.30;11.97;;;;;;;-143.84;81.19;45163.31;4989592;28;21097;-73
2022/11/09 07:28:44;;;;;;;13.03;10.90;;;;;;;-143.84;80.69;45146.19;4989575;28;20452;-74
2022/11/09 07:31:11;;;;;;;15.40;11.17;;;;;;;-143.84;80.49;45150.00;4989675;28;20446;-69
2022/11/09 07:33:39;;;;;;;20.00;11.03;;;;;;;-143.84;80.43;45184.25;4989664;28;20445;-74
2022/11/09 07:36:06;;;;;;;29.30;12.77;;;;;;;-143.84;80.39;45159.50;4990023;28;20503;-75
2022/11/09 07:38:34;;;;;;;20.50;12.40;;;;;;;-143.84;80.72;45148.09;4989696;28;20449;-74
2022/11/09 07:41:02;;;;;;;17.90;11.57;;;;;;;-143.84;80.37;45159.50;4989258;28;20484;-74
2022/11/09 07:43:30;;;;;;;19.97;11.50;;;;;;;-143.84;79.88;45188.06;4989886;28;20443;-74
2022/11/09 07:45:58;;;;;;;18.60;12.07;;;;;;;-143.84;80.00;45151.91;4989304;28;20450;-74
2022/11/09 07:48:25;;;;;;;18.17;12.83;;;;;;;-143.84;79.96;45167.13;4989111;28;20489;-74
2022/11/09 07:50:52;;;;;;;16.40;11.90;;;;;;;-143.84;79.91;45186.16;4989291;28;20508;-74
2022/11/09 07:53:20;;;;;;;20.10;11.77;;;;;;;-143.84;79.61;45148.09;4989212;28;20453;-74
2022/11/09 07:55:47;;;;;;;22.97;12.67;;;;;;;-143.84;79.64;45153.81;4989360;28;20956;-74
2022/11/09 07:58:15;;;;;;;17.40;12.03;;;;;;;-143.84;78.75;45129.03;4991244;28;20451;-76
2022/11/09 08:00:44;;;;;;;17.67;11.00;;;;;;;-143.84;78.89;45129.03;4993338;28;20498;-75
2022/11/09 08:03:11;;;;;;;16.70;11.10;;;;;;;-143.84;78.57;45161.41;4993996;28;20439;-75
2022/11/09 08:05:39;;;;;;;13.37;10.83;;;;;;;-143.84;78.56;45163.31;4993432;28;20451;-74
2022/11/09 08:08:09;;;;;;;18.10;11.23;;;;;;;-143.84;78.13;45163.31;4993223;28;20929;-75
2022/11/09 08:10:37;;;;;;;17.53;11.63;;;;;;;-143.84;78.00;45159.50;4993686;28;20457;-73
2022/11/09 08:13:05;;;;;;;20.70;11.80;;;;;;;-143.84;78.41;45167.13;4993192;28;20453;-72
2022/11/09 08:15:34;;;;;;;18.90;11.20;;;;;;;-143.84;78.60;45165.22;4992695;28;20442;-73
2022/11/09 08:18:07;;;;;;;15.57;10.87;;;;;;;-143.84;78.52;45153.81;4992811;28;20470;-70
2022/11/09 08:20:35;;;;;;;22.60;11.97;;;;;;;-143.84;77.57;45157.59;4992711;28;21091;-72
2022/11/09 08:23:02;;;;;;;18.13;11.47;;;;;;;-143.84;77.56;45151.91;4992500;28;20447;-73
2022/11/09 08:25:29;;;;;;;21.70;10.20;;;;;;;-143.84;77.12;45165.22;4992292;28;20443;-73
2022/11/09 08:27:57;;;;;;;17.97;11.07;;;;;;;-143.84;76.61;45146.19;4991870;28;20444;-73
2022/11/09 08:30:24;;;;;;;14.03;10.50;;;;;;;-143.84;76.04;45172.84;4992281;28;20538;-72
2022/11/09 08:32:52;;;;;;;16.33;11.30;;;;;;;-143.84;76.47;45144.28;4992266;28;20447;-72
2022/11/09 08:35:22;;;;;;;15.77;10.47;;;;;;;-143.84;76.50;45163.31;4992158;28;20447;-73
2022/11/09 08:37:53;;;;;;;21.13;12.00;;;;;;;-143.84;76.22;45129.03;4991918;28;20953;-73
2022/11/09 08:40:22;;;;;;;14.83;10.70;;;;;;;-143.84;75.97;45132.84;4993047;28;20474;-75
2022/11/09 08:42:49;;;;;;;14.13;10.03;;;;;;;-143.84;75.92;45150.00;4992775;28;21131;-75
2022/11/09 08:45:17;;;;;;;20.10;10.70;;;;;;;-143.84;75.59;45178.56;4993253;28;20944;-75
2022/11/09 08:47:45;;;;;;;15.70;11.00;;;;;;;-143.84;75.38;45163.31;4992027;28;20901;-75
2022/11/09 08:50:15;;;;;;;17.43;11.17;;;;;;;-143.84;75.31;45161.41;4992120;28;20505;-75
2022/11/09 08:52:44;;;;;;;16.07;11.97;;;;;;;-143.84;74.98;45136.66;4991581;28;20454;-75
2022/11/09 08:55:11;;;;;;;19.33;12.43;;;;;;;-143.84;74.51;45146.19;4992391;28;20533;-75
2022/11/09 08:57:38;;;;;;;14.17;10.83;;;;;;;-143.84;75.03;45144.28;4992260;28;20454;-75
2022/11/09 09:00:07;;;;;;;19.10;13.70;;;;;;;-143.84;74.84;45121.44;4991906;28;20491;-75
2022/11/09 09:02:34;;;;;;;16.57;11.50;;;;;;;-143.84;74.13;45132.84;4992371;28;20471;-75
2022/11/09 09:05:01;;;;;;;13.93;9.70;;;;;;;-143.84;73.93;45144.28;4992153;28;20439;-74
2022/11/09 09:07:28;;;;;;;20.83;11.33;;;;;;;-143.84;73.70;45161.41;4992328;28;20455;-74
2022/11/09 09:09:57;;;;;;;16.23;11.10;;;;;;;-143.84;73.36;45159.50;4991820;28;20458;-74
2022/11/09 09:12:24;;;;;;;19.67;11.30;;;;;;;-143.84;73.60;45151.91;4991942;28;20870;-75
2022/11/09 09:14:51;;;;;;;38.10;16.83;;;;;;;-143.84;73.73;45193.78;4991665;28;20450;-74
2022/11/09 09:17:18;;;;;;;43.80;20.70;;;;;;;-143.84;73.21;45138.56;4992003;28;20515;-76
2022/11/09 09:19:45;;;;;;;61.40;23.50;;;;;;;-143.84;72.67;45142.38;4992531;28;20451;-75
2022/11/09 09:22:13;;;;;;;41.47;16.47;;;;;;;-143.84;72.91;45178.56;4992535;28;20446;-75
2022/11/09 09:24:40;;;;;;;17.80;12.73;;;;;;;-143.84;73.36;45151.91;4992459;28;20459;-76
2022/11/09 09:27:08;;;;;;;24.87;11.30;;;;;;;-143.84;73.22;45130.94;4992102;28;20447;-75
2022/11/09 09:29:35;;;;;;;16.03;10.10;;;;;;;-143.84;73.50;45153.81;4992210;28;20957;-76
2022/11/09 09:32:03;;;;;;;14.40;10.87;;;;;;;-143.84;73.62;45169.03;4992513;28;20444;-75
2022/11/09 09:34:30;;;;;;;13.70;9.90;;;;;;;-143.84;73.56;45140.47;4992110;28;20897;-75
2022/11/09 09:36:57;;;;;;;11.83;9.57;;;;;;;-143.84;73.50;45150.00;4992240;28;20470;-76
2022/11/09 09:39:24;;;;;;;19.30;10.20;;;;;;;-143.84;73.04;45123.34;4991610;28;20449;-75
2022/11/09 09:41:53;;;;;;;19.63;10.33;;;;;;;-143.84;72.85;45144.28;4990098;28;20534;-76
2022/11/09 09:44:28;;;;;;;23.03;11.30;;;;;;;-143.84;72.76;45153.81;4990725;28;20486;-76
2022/11/09 09:47:04;;;;;;;19.53;10.60;;;;;;;-143.84;72.09;45157.59;4991157;28;20467;-75
2022/11/09 09:49:34;;;;;;;17.53;10.27;;;;;;;-143.84;72.45;45146.19;4991176;28;20973;-75
2022/11/09 09:52:09;;;;;;;19.80;10.50;;;;;;;-143.84;72.36;45148.09;4991565;28;20443;-75
2022/11/09 09:54:53;;;;;;;12.83;10.30;;;;;;;-143.84;72.45;45159.50;4991920;28;20431;-75
2022/11/09 09:57:23;;;;;;;18.57;10.00;;;;;;;-143.84;72.14;45144.28;4991184;28;20898;-75
2022/11/09 09:59:54;;;;;;;18.13;8.90;;;;;;;-143.84;72.03;45161.41;4990814;28;20530;-75
2022/11/09 10:02:25;;;;;;;11.47;9.70;;;;;;;-143.84;72.07;45157.59;4991532;28;20525;-75
2022/11/09 10:04:53;;;;;;;14.83;9.70;;;;;;;-143.84;72.02;45140.47;4991511;28;20467;-75
2022/11/09 10:07:27;;;;;;;10.83;9.63;;;;;;;-143.84;71.81;45110.00;4991269;28;20552;-75
2022/11/09 10:10:08;;;;;;;13.87;10.20;;;;;;;-143.84;71.87;45136.66;4991115;28;20454;-73
2022/11/09 10:12:46;;;;;;;14.83;10.20;;;;;;;-143.84;72.02;45153.81;4973007;28;20506;-73
2022/11/09 10:15:23;;;;;;;15.30;10.37;;;;;;;-143.84;72.56;45155.69;4989928;28;20443;-73
2022/11/09 10:18:02;;;;;;;12.77;8.30;;;;;;;-143.84;71.61;45151.91;4989643;28;20463;-73
2022/11/09 10:20:41;;;;;;;11.63;8.13;;;;;;;-143.84;70.46;45138.56;4989382;28;20501;-72
2022/11/09 10:23:34;;;;;;;11.73;7.63;;;;;;;-143.84;70.49;45161.41;4990679;28;20444;-75
2022/11/09 10:26:04;;;;;;;13.97;9.20;;;;;;;-143.84;70.31;45142.38;4991418;28;20817;-75
2022/11/09 10:28:33;;;;;;;14.37;9.47;;;;;;;-143.84;69.70;45144.28;4991067;28;20530;-75
2022/11/09 10:31:03;;;;;;;15.20;8.67;;;;;;;-143.84;69.46;45167.13;4990938;28;20531;-69
2022/11/09 10:33:30;;;;;;;13.13;8.80;;;;;;;-143.84;69.00;45159.50;4990619;28;21024;-69
2022/11/09 10:36:09;;;;;;;16.40;8.90;;;;;;;-143.84;69.28;45136.66;4990352;28;21028;-69
2022/11/09 10:38:42;;;;;;;13.00;8.40;;;;;;;-143.84;69.04;45144.28;4990610;28;20949;-69
2022/11/09 10:41:20;;;;;;;10.80;7.50;;;;;;;-143.84;68.47;45146.19;4990358;28;20588;-69
2022/11/09 10:43:47;;;;;;;9.80;7.87;;;;;;;-143.84;68.83;45153.81;4990332;28;20509;-69
2022/11/09 10:46:16;;;;;;;13.63;9.37;;;;;;;-143.84;68.88;45136.66;4990392;28;20858;-69
2022/11/09 10:48:43;;;;;;;18.03;8.07;;;;;;;-143.84;69.15;45155.69;4989854;28;20498;-69
2022/11/09 10:51:40;;;;;;;15.20;9.07;;;;;;;-143.84;69.15;45150.00;4989625;28;20970;-69
2022/11/09 10:54:16;;;;;;;12.70;8.83;;;;;;;-143.84;69.00;45132.84;4990014;28;20451;-69
2022/11/09 10:56:48;;;;;;;15.33;8.53;;;;;;;-143.84;69.00;45146.19;4989771;28;20456;-69
2022/11/09 10:59:45;;;;;;;31.60;10.40;;;;;;;-143.84;69.17;45151.91;4989969;28;20451;-69
2022/11/09 11:02:44;;;;;;;11.20;7.53;;;;;;;-143.84;68.83;45153.81;4989895;28;20499;-69
2022/11/09 11:05:37;;;;;;;13.80;8.20;;;;;;;-143.84;68.85;45159.50;4989477;28;21258;-69
2022/11/09 11:08:30;;;;;;;17.40;9.70;;;;;;;-143.84;68.61;45136.66;4987062;28;20456;-69
2022/11/09 11:11:22;;;;;;;17.37;8.57;;;;;;;-143.84;67.97;45136.66;4988947;28;20444;-70
2022/11/09 11:13:51;;;;;;;12.23;8.13;;;;;;;-143.84;68.60;45150.00;4989360;28;20796;-69
2022/11/09 11:16:36;;;;;;;15.70;7.87;;;;;;;-143.84;68.24;45155.69;4989870;28;20518;-69
2022/11/09 11:19:06;;;;;;;9.30;7.40;;;;;;;-143.84;67.99;45159.50;4989759;28;20448;-69